CMP331 SKAR-MPTO
Flight info
| Callsign | CMP331 |
|---|---|
| Flight time | 1h 29m |
| Altitude | 36000 |
| Route | PEI3G PEI DCT PULOX UM549 SIGUN ISOKO2A |
| Aircraft | B38M/M-SDE1FGHILORVWXY/HB1 |
Departure
| Time | 2026-04-25 23:06 |
|---|---|
| Airport | El Eden Airport (SKAR) |
Arrival
| Time | 2026-04-26 00:35 |
|---|---|
| Airport | Tocumen International Airport (MPTO) |
| Time | Latitude | Longitude | Altitude | Speed | Heading |
|---|---|---|---|---|---|
| 2026-04-25 22:37 | 4.45322 | -75.76736 | 3972 ft | 0 kts | 282° |
| 2026-04-25 22:56 | 4.45319 | -75.76715 | 3973 ft | 4 kts | 264° |
| 2026-04-25 22:56 | 4.45327 | -75.76696 | 3973 ft | 4 kts | 222° |
| 2026-04-25 22:56 | 4.45347 | -75.76685 | 3972 ft | 3 kts | 194° |
| 2026-04-25 22:56 | 4.45350 | -75.76685 | 3972 ft | 0 kts | 194° |
| 2026-04-25 23:01 | 4.45345 | -75.76686 | 3972 ft | 3 kts | 196° |
| 2026-04-25 23:01 | 4.45281 | -75.76703 | 3972 ft | 15 kts | 185° |
| 2026-04-25 23:01 | 4.45212 | -75.76642 | 3966 ft | 6 kts | 63° |
| 2026-04-25 23:01 | 4.45237 | -75.76626 | 3969 ft | 3 kts | 14° |
| 2026-04-25 23:02 | 4.45262 | -75.76617 | 3968 ft | 5 kts | 18° |
| 2026-04-25 23:02 | 4.45314 | -75.76601 | 3967 ft | 12 kts | 17° |
| 2026-04-25 23:02 | 4.45413 | -75.76575 | 3970 ft | 16 kts | 10° |
| 2026-04-25 23:02 | 4.45517 | -75.76555 | 3974 ft | 14 kts | 12° |
| 2026-04-25 23:03 | 4.45609 | -75.76530 | 3976 ft | 13 kts | 14° |
| 2026-04-25 23:03 | 4.45696 | -75.76509 | 3978 ft | 13 kts | 13° |
| 2026-04-25 23:03 | 4.45782 | -75.76489 | 3981 ft | 12 kts | 13° |
| 2026-04-25 23:03 | 4.45864 | -75.76470 | 3981 ft | 12 kts | 12° |
| 2026-04-25 23:04 | 4.45943 | -75.76450 | 3979 ft | 12 kts | 15° |
| 2026-04-25 23:04 | 4.45997 | -75.76436 | 3984 ft | 13 kts | 13° |
| 2026-04-25 23:04 | 4.46122 | -75.76416 | 3976 ft | 14 kts | 353° |
| 2026-04-25 23:04 | 4.46159 | -75.76408 | 3983 ft | 0 kts | 102° |
| 2026-04-25 23:05 | 4.46156 | -75.76407 | 3981 ft | 1 kts | 144° |
| 2026-04-25 23:05 | 4.46120 | -75.76407 | 3979 ft | 10 kts | 192° |
| 2026-04-25 23:05 | 4.45877 | -75.76465 | 3983 ft | 75 kts | 193° |
| 2026-04-25 23:05 | 4.45115 | -75.76650 | 3964 ft | 148 kts | 194° |
| 2026-04-25 23:06 | 4.43959 | -75.76928 | 4221 ft | 186 kts | 195° |
| 2026-04-25 23:06 | 4.42668 | -75.77239 | 5079 ft | 183 kts | 193° |
| 2026-04-25 23:06 | 4.41433 | -75.77533 | 5985 ft | 190 kts | 192° |
| 2026-04-25 23:06 | 4.40102 | -75.77854 | 6577 ft | 208 kts | 194° |
| 2026-04-25 23:07 | 4.38725 | -75.78363 | 7359 ft | 212 kts | 211° |
| 2026-04-25 23:07 | 4.37661 | -75.79362 | 8255 ft | 213 kts | 239° |
| 2026-04-25 23:07 | 4.37143 | -75.80749 | 9016 ft | 213 kts | 257° |
| 2026-04-25 23:07 | 4.36757 | -75.82191 | 9908 ft | 217 kts | 254° |
| 2026-04-25 23:08 | 4.36331 | -75.83665 | 10654 ft | 220 kts | 253° |
| 2026-04-25 23:08 | 4.35900 | -75.85126 | 11516 ft | 219 kts | 253° |
| 2026-04-25 23:08 | 4.35456 | -75.86612 | 12225 ft | 225 kts | 253° |
| 2026-04-25 23:08 | 4.35003 | -75.88117 | 13033 ft | 227 kts | 253° |
| 2026-04-25 23:09 | 4.34548 | -75.89618 | 13778 ft | 230 kts | 253° |
| 2026-04-25 23:09 | 4.34116 | -75.91174 | 14417 ft | 236 kts | 259° |
| 2026-04-25 23:09 | 4.33865 | -75.92863 | 14803 ft | 255 kts | 262° |
| 2026-04-25 23:09 | 4.33599 | -75.94686 | 15157 ft | 275 kts | 261° |
| 2026-04-25 23:10 | 4.33302 | -75.96634 | 15642 ft | 289 kts | 261° |
| 2026-04-25 23:10 | 4.32980 | -75.98681 | 16043 ft | 306 kts | 261° |
| 2026-04-25 23:10 | 4.32754 | -76.00100 | 16338 ft | 316 kts | 261° |
| 2026-04-25 23:10 | 4.32402 | -76.02310 | 16898 ft | 326 kts | 261° |
| 2026-04-25 23:11 | 4.32059 | -76.04553 | 17712 ft | 326 kts | 261° |
| 2026-04-25 23:11 | 4.32120 | -76.07572 | 18520 ft | 334 kts | 285° |
| 2026-04-25 23:11 | 4.33114 | -76.09660 | 19171 ft | 335 kts | 306° |
| 2026-04-25 23:11 | 4.34786 | -76.11298 | 19737 ft | 340 kts | 326° |
| 2026-04-25 23:12 | 4.36936 | -76.12293 | 20355 ft | 343 kts | 342° |
| 2026-04-25 23:12 | 4.38448 | -76.12758 | 20750 ft | 345 kts | 342° |
| 2026-04-25 23:12 | 4.40762 | -76.13471 | 21310 ft | 349 kts | 342° |
| 2026-04-25 23:12 | 4.43105 | -76.14152 | 21829 ft | 355 kts | 347° |
| 2026-04-25 23:13 | 4.46463 | -76.14180 | 21925 ft | 380 kts | 13° |
| 2026-04-25 23:13 | 4.48934 | -76.13126 | 21982 ft | 397 kts | 33° |
| 2026-04-25 23:13 | 4.51006 | -76.11242 | 22171 ft | 409 kts | 47° |
| 2026-04-25 23:13 | 4.52995 | -76.09179 | 22570 ft | 413 kts | 44° |
| 2026-04-25 23:14 | 4.54334 | -76.07823 | 22921 ft | 413 kts | 44° |
| 2026-04-25 23:14 | 4.56362 | -76.05767 | 23374 ft | 417 kts | 44° |
| 2026-04-25 23:14 | 4.58405 | -76.03691 | 23786 ft | 419 kts | 45° |
| 2026-04-25 23:14 | 4.60460 | -76.01604 | 24168 ft | 421 kts | 45° |
| 2026-04-25 23:15 | 4.62523 | -75.99509 | 24549 ft | 424 kts | 45° |
| 2026-04-25 23:15 | 4.65274 | -75.96713 | 25051 ft | 427 kts | 45° |
| 2026-04-25 23:15 | 4.66681 | -75.95284 | 25311 ft | 428 kts | 45° |
| 2026-04-25 23:15 | 4.68779 | -75.93152 | 25781 ft | 430 kts | 45° |
| 2026-04-25 23:16 | 4.70883 | -75.91014 | 26175 ft | 432 kts | 45° |
| 2026-04-25 23:16 | 4.72971 | -75.88891 | 26541 ft | 435 kts | 45° |
| 2026-04-25 23:16 | 4.75114 | -75.86744 | 26904 ft | 437 kts | 42° |
| 2026-04-25 23:16 | 4.77615 | -75.85003 | 27262 ft | 440 kts | 27° |
| 2026-04-25 23:17 | 4.80504 | -75.83985 | 27615 ft | 443 kts | 12° |
| 2026-04-25 23:17 | 4.83579 | -75.83664 | 27948 ft | 447 kts | 4° |
| 2026-04-25 23:17 | 4.86697 | -75.83512 | 28270 ft | 450 kts | 3° |
| 2026-04-25 23:17 | 4.89834 | -75.83402 | 28617 ft | 453 kts | 2° |
| 2026-04-25 23:18 | 4.92993 | -75.83313 | 28919 ft | 456 kts | 2° |
| 2026-04-25 23:18 | 4.96133 | -75.83239 | 29236 ft | 458 kts | 2° |
| 2026-04-25 23:18 | 4.99327 | -75.83170 | 29549 ft | 461 kts | 2° |
| 2026-04-25 23:18 | 5.02545 | -75.83102 | 29863 ft | 464 kts | 2° |
| 2026-04-25 23:19 | 5.05776 | -75.83034 | 30158 ft | 466 kts | 2° |
| 2026-04-25 23:19 | 5.09031 | -75.82966 | 30413 ft | 468 kts | 2° |
| 2026-04-25 23:19 | 5.12292 | -75.82898 | 30688 ft | 470 kts | 2° |
| 2026-04-25 23:19 | 5.15576 | -75.82829 | 30942 ft | 473 kts | 2° |
| 2026-04-25 23:20 | 5.18871 | -75.82761 | 31210 ft | 475 kts | 2° |
| 2026-04-25 23:20 | 5.22179 | -75.82691 | 31479 ft | 477 kts | 2° |
| 2026-04-25 23:20 | 5.25504 | -75.82622 | 31736 ft | 479 kts | 2° |
| 2026-04-25 23:20 | 5.28845 | -75.82552 | 31995 ft | 481 kts | 2° |
| 2026-04-25 23:21 | 5.32158 | -75.82482 | 32251 ft | 483 kts | 2° |
| 2026-04-25 23:21 | 5.35520 | -75.82412 | 32572 ft | 484 kts | 2° |
| 2026-04-25 23:21 | 5.38887 | -75.82342 | 32909 ft | 484 kts | 3° |
| 2026-04-25 23:21 | 5.42256 | -75.82271 | 33251 ft | 484 kts | 3° |
| 2026-04-25 23:22 | 5.45620 | -75.82201 | 33608 ft | 484 kts | 3° |
| 2026-04-25 23:22 | 5.48985 | -75.82130 | 33932 ft | 484 kts | 3° |
| 2026-04-25 23:23 | 5.59019 | -75.81921 | 34023 ft | 482 kts | 2° |
| 2026-04-25 23:23 | 5.65729 | -75.81841 | 33990 ft | 483 kts | 356° |
| 2026-04-25 23:23 | 5.69026 | -75.82495 | 33990 ft | 484 kts | 341° |
| 2026-04-25 23:24 | 5.72072 | -75.83945 | 33992 ft | 487 kts | 327° |
| 2026-04-25 23:24 | 5.74667 | -75.86115 | 34004 ft | 488 kts | 313° |
| 2026-04-25 23:24 | 5.76896 | -75.88692 | 33995 ft | 489 kts | 311° |
| 2026-04-25 23:25 | 5.81311 | -75.93898 | 33996 ft | 490 kts | 310° |
| 2026-04-25 23:25 | 5.85657 | -75.99109 | 33994 ft | 490 kts | 310° |
| 2026-04-25 23:26 | 5.90024 | -76.04359 | 33994 ft | 490 kts | 310° |
| 2026-04-25 23:26 | 5.94395 | -76.09614 | 33970 ft | 491 kts | 310° |
| 2026-04-25 23:27 | 5.98778 | -76.14886 | 33976 ft | 491 kts | 310° |
| 2026-04-25 23:27 | 6.03102 | -76.20087 | 33975 ft | 486 kts | 310° |
| 2026-04-25 23:28 | 6.07436 | -76.25303 | 33961 ft | 487 kts | 310° |
| 2026-04-25 23:28 | 6.11774 | -76.30525 | 33958 ft | 487 kts | 310° |
| 2026-04-25 23:29 | 6.16115 | -76.35751 | 33963 ft | 487 kts | 310° |
| 2026-04-25 23:29 | 6.20424 | -76.40942 | 33914 ft | 487 kts | 310° |
| 2026-04-25 23:30 | 6.24763 | -76.46170 | 33928 ft | 487 kts | 310° |
| 2026-04-25 23:30 | 6.29101 | -76.51397 | 33879 ft | 487 kts | 310° |
| 2026-04-25 23:31 | 6.33450 | -76.56640 | 33880 ft | 489 kts | 310° |
| 2026-04-25 23:31 | 6.37800 | -76.61885 | 33886 ft | 488 kts | 310° |
| 2026-04-25 23:32 | 6.42107 | -76.67080 | 33863 ft | 477 kts | 310° |
| 2026-04-25 23:32 | 6.44195 | -76.69598 | 33866 ft | 460 kts | 310° |
| 2026-04-25 23:32 | 6.46208 | -76.72027 | 33871 ft | 444 kts | 310° |
| 2026-04-25 23:32 | 6.48154 | -76.74375 | 33874 ft | 429 kts | 310° |
| 2026-04-25 23:33 | 6.50029 | -76.76638 | 33871 ft | 414 kts | 309° |
| 2026-04-25 23:33 | 6.53637 | -76.80994 | 33853 ft | 402 kts | 309° |
| 2026-04-25 23:34 | 6.57190 | -76.85283 | 33852 ft | 401 kts | 309° |
| 2026-04-25 23:34 | 6.60766 | -76.89602 | 33848 ft | 402 kts | 309° |
| 2026-04-25 23:35 | 6.64348 | -76.93929 | 33848 ft | 403 kts | 310° |
| 2026-04-25 23:35 | 6.67930 | -76.98258 | 33865 ft | 401 kts | 309° |
| 2026-04-25 23:36 | 6.71494 | -77.02565 | 33850 ft | 400 kts | 309° |
| 2026-04-25 23:36 | 6.75025 | -77.06833 | 33852 ft | 400 kts | 309° |
| 2026-04-25 23:37 | 6.78580 | -77.11132 | 33859 ft | 400 kts | 309° |
| 2026-04-25 23:37 | 6.82135 | -77.15433 | 33868 ft | 400 kts | 309° |
| 2026-04-25 23:38 | 6.85691 | -77.19734 | 33870 ft | 400 kts | 309° |
| 2026-04-25 23:38 | 6.89247 | -77.24037 | 33877 ft | 400 kts | 309° |
| 2026-04-25 23:39 | 6.92780 | -77.28314 | 33881 ft | 400 kts | 309° |
| 2026-04-25 23:39 | 6.96336 | -77.32619 | 33878 ft | 400 kts | 309° |
| 2026-04-25 23:40 | 6.99894 | -77.36929 | 33879 ft | 400 kts | 309° |
| 2026-04-25 23:40 | 7.03452 | -77.41239 | 33890 ft | 400 kts | 309° |
| 2026-04-25 23:41 | 7.06988 | -77.45523 | 33891 ft | 400 kts | 309° |
| 2026-04-25 23:41 | 7.10547 | -77.49837 | 33891 ft | 400 kts | 309° |
| 2026-04-25 23:42 | 7.14106 | -77.54152 | 33913 ft | 400 kts | 309° |
| 2026-04-25 23:42 | 7.17662 | -77.58464 | 33909 ft | 400 kts | 309° |
| 2026-04-25 23:43 | 7.21193 | -77.62747 | 33909 ft | 400 kts | 308° |
| 2026-04-25 23:43 | 7.24750 | -77.67063 | 33913 ft | 400 kts | 308° |
| 2026-04-25 23:44 | 7.28305 | -77.71378 | 33914 ft | 400 kts | 308° |
| 2026-04-25 23:44 | 7.31862 | -77.75696 | 33917 ft | 400 kts | 309° |
| 2026-04-25 23:45 | 7.35417 | -77.80013 | 33914 ft | 400 kts | 308° |
| 2026-04-25 23:45 | 7.38968 | -77.84282 | 33907 ft | 400 kts | 310° |
| 2026-04-25 23:46 | 7.42630 | -77.88511 | 33919 ft | 400 kts | 310° |
| 2026-04-25 23:46 | 7.46277 | -77.92740 | 33915 ft | 400 kts | 310° |
| 2026-04-25 23:47 | 7.49925 | -77.96972 | 33905 ft | 400 kts | 309° |
| 2026-04-25 23:47 | 7.53560 | -78.01191 | 33913 ft | 402 kts | 309° |
| 2026-04-25 23:48 | 7.57220 | -78.05441 | 33899 ft | 401 kts | 309° |
| 2026-04-25 23:48 | 7.60881 | -78.09692 | 33906 ft | 401 kts | 309° |
| 2026-04-25 23:49 | 7.64540 | -78.13943 | 33908 ft | 401 kts | 309° |
| 2026-04-25 23:49 | 7.68172 | -78.18163 | 33876 ft | 399 kts | 309° |
| 2026-04-25 23:49 | 7.69985 | -78.20270 | 33351 ft | 399 kts | 309° |
| 2026-04-25 23:50 | 7.71807 | -78.22388 | 32848 ft | 399 kts | 309° |
| 2026-04-25 23:50 | 7.73629 | -78.24506 | 32353 ft | 399 kts | 309° |
| 2026-04-25 23:50 | 7.75444 | -78.26616 | 31890 ft | 399 kts | 309° |
| 2026-04-25 23:50 | 7.77263 | -78.28733 | 31428 ft | 399 kts | 309° |
| 2026-04-25 23:51 | 7.79078 | -78.30843 | 30976 ft | 398 kts | 309° |
| 2026-04-25 23:51 | 7.80892 | -78.32953 | 30523 ft | 398 kts | 309° |
| 2026-04-25 23:51 | 7.82702 | -78.35059 | 30085 ft | 397 kts | 309° |
| 2026-04-25 23:51 | 7.84485 | -78.37133 | 29588 ft | 397 kts | 309° |
| 2026-04-25 23:52 | 7.86294 | -78.39238 | 29055 ft | 397 kts | 309° |
| 2026-04-25 23:52 | 7.88100 | -78.41340 | 28523 ft | 397 kts | 309° |
| 2026-04-25 23:52 | 7.89907 | -78.43443 | 28000 ft | 397 kts | 309° |
| 2026-04-25 23:52 | 7.91716 | -78.45549 | 27482 ft | 397 kts | 309° |
| 2026-04-25 23:53 | 7.93523 | -78.47653 | 26965 ft | 397 kts | 309° |
| 2026-04-25 23:53 | 7.95332 | -78.49760 | 26447 ft | 397 kts | 310° |
| 2026-04-25 23:53 | 7.97138 | -78.51863 | 25957 ft | 397 kts | 310° |
| 2026-04-25 23:53 | 7.98946 | -78.53969 | 25403 ft | 394 kts | 310° |
| 2026-04-25 23:54 | 8.00714 | -78.56030 | 24706 ft | 391 kts | 310° |
| 2026-04-25 23:54 | 8.02489 | -78.58098 | 23864 ft | 392 kts | 311° |
| 2026-04-25 23:54 | 8.04293 | -78.60201 | 22561 ft | 401 kts | 311° |
| 2026-04-25 23:54 | 8.06141 | -78.62355 | 21096 ft | 411 kts | 311° |
| 2026-04-25 23:55 | 8.08035 | -78.64564 | 19518 ft | 421 kts | 311° |
| 2026-04-25 23:55 | 8.09976 | -78.66827 | 17877 ft | 434 kts | 311° |
| 2026-04-25 23:55 | 8.11976 | -78.69159 | 16843 ft | 433 kts | 310° |
| 2026-04-25 23:55 | 8.13882 | -78.71382 | 17028 ft | 406 kts | 310° |
| 2026-04-25 23:56 | 8.15685 | -78.73485 | 17027 ft | 388 kts | 310° |
| 2026-04-25 23:56 | 8.17390 | -78.75474 | 17028 ft | 371 kts | 310° |
| 2026-04-25 23:56 | 8.19045 | -78.77405 | 17035 ft | 356 kts | 311° |
| 2026-04-25 23:56 | 8.20631 | -78.79255 | 17035 ft | 341 kts | 311° |
| 2026-04-25 23:57 | 8.22149 | -78.81027 | 17034 ft | 327 kts | 311° |
| 2026-04-25 23:57 | 8.23649 | -78.82717 | 16872 ft | 322 kts | 316° |
| 2026-04-25 23:57 | 8.25294 | -78.84229 | 16598 ft | 317 kts | 317° |
| 2026-04-25 23:57 | 8.26907 | -78.85727 | 16307 ft | 313 kts | 317° |
| 2026-04-25 23:58 | 8.28497 | -78.87218 | 15999 ft | 310 kts | 317° |
| 2026-04-25 23:58 | 8.30065 | -78.88699 | 15681 ft | 307 kts | 316° |
| 2026-04-25 23:58 | 8.31598 | -78.90149 | 15369 ft | 305 kts | 317° |
| 2026-04-25 23:58 | 8.33141 | -78.91613 | 15054 ft | 303 kts | 316° |
| 2026-04-25 23:59 | 8.34673 | -78.93068 | 14742 ft | 301 kts | 316° |
| 2026-04-25 23:59 | 8.36198 | -78.94516 | 14425 ft | 300 kts | 316° |
| 2026-04-25 23:59 | 8.37713 | -78.95955 | 14118 ft | 299 kts | 316° |
| 2026-04-25 23:59 | 8.39225 | -78.97391 | 13804 ft | 298 kts | 316° |
| 2026-04-26 00:00 | 8.40486 | -78.98589 | 13516 ft | 297 kts | 317° |
| 2026-04-26 00:00 | 8.40708 | -78.98800 | 13462 ft | 297 kts | 317° |
| 2026-04-26 00:00 | 8.42207 | -79.00224 | 13128 ft | 295 kts | 317° |
| 2026-04-26 00:00 | 8.43673 | -79.01618 | 12814 ft | 293 kts | 317° |
| 2026-04-26 00:01 | 8.45151 | -79.03023 | 12499 ft | 291 kts | 317° |
| 2026-04-26 00:01 | 8.46636 | -79.04434 | 12201 ft | 295 kts | 317° |
| 2026-04-26 00:01 | 8.48138 | -79.05863 | 11883 ft | 299 kts | 317° |
| 2026-04-26 00:01 | 8.49653 | -79.07303 | 11577 ft | 298 kts | 317° |
| 2026-04-26 00:02 | 8.51158 | -79.08734 | 11287 ft | 295 kts | 317° |
| 2026-04-26 00:02 | 8.52649 | -79.10151 | 10990 ft | 293 kts | 317° |
| 2026-04-26 00:02 | 8.54128 | -79.11558 | 10691 ft | 291 kts | 317° |
| 2026-04-26 00:02 | 8.55580 | -79.12941 | 10385 ft | 290 kts | 317° |
| 2026-04-26 00:03 | 8.57042 | -79.14332 | 10143 ft | 286 kts | 317° |
| 2026-04-26 00:03 | 8.58467 | -79.15688 | 10001 ft | 278 kts | 317° |
| 2026-04-26 00:03 | 8.59868 | -79.17021 | 9744 ft | 276 kts | 317° |
| 2026-04-26 00:03 | 8.61263 | -79.18349 | 9401 ft | 275 kts | 317° |
| 2026-04-26 00:04 | 8.62655 | -79.19674 | 9075 ft | 274 kts | 317° |
| 2026-04-26 00:04 | 8.64038 | -79.20991 | 8765 ft | 273 kts | 317° |
| 2026-04-26 00:04 | 8.65419 | -79.22305 | 8461 ft | 272 kts | 317° |
| 2026-04-26 00:04 | 8.66772 | -79.23593 | 8166 ft | 270 kts | 316° |
| 2026-04-26 00:05 | 8.68138 | -79.24891 | 7895 ft | 270 kts | 317° |
| 2026-04-26 00:05 | 8.69513 | -79.26196 | 7705 ft | 272 kts | 316° |
| 2026-04-26 00:05 | 8.70888 | -79.27501 | 7535 ft | 271 kts | 316° |
| 2026-04-26 00:05 | 8.72263 | -79.28807 | 7347 ft | 271 kts | 316° |
| 2026-04-26 00:06 | 8.73633 | -79.30108 | 7161 ft | 270 kts | 316° |
| 2026-04-26 00:06 | 8.75000 | -79.31406 | 6973 ft | 269 kts | 316° |
| 2026-04-26 00:06 | 8.76366 | -79.32705 | 6784 ft | 269 kts | 316° |
| 2026-04-26 00:06 | 8.77728 | -79.33998 | 6607 ft | 269 kts | 316° |
| 2026-04-26 00:07 | 8.79090 | -79.35292 | 6412 ft | 268 kts | 316° |
| 2026-04-26 00:07 | 8.80428 | -79.36563 | 6219 ft | 266 kts | 316° |
| 2026-04-26 00:07 | 8.81765 | -79.37834 | 6021 ft | 261 kts | 316° |
| 2026-04-26 00:07 | 8.82828 | -79.39280 | 5811 ft | 255 kts | 291° |
| 2026-04-26 00:08 | 8.83072 | -79.41002 | 5676 ft | 245 kts | 264° |
| 2026-04-26 00:08 | 8.82697 | -79.42652 | 5524 ft | 237 kts | 255° |
| 2026-04-26 00:08 | 8.82264 | -79.44231 | 5388 ft | 229 kts | 254° |
| 2026-04-26 00:08 | 8.81833 | -79.45754 | 5248 ft | 222 kts | 254° |
| 2026-04-26 00:09 | 8.81410 | -79.47226 | 5109 ft | 214 kts | 253° |
| 2026-04-26 00:09 | 8.81002 | -79.48623 | 4992 ft | 206 kts | 253° |
| 2026-04-26 00:09 | 8.80603 | -79.49987 | 4878 ft | 199 kts | 255° |
| 2026-04-26 00:09 | 8.80580 | -79.51350 | 4697 ft | 194 kts | 289° |
| 2026-04-26 00:10 | 8.81308 | -79.52461 | 4553 ft | 190 kts | 312° |
| 2026-04-26 00:10 | 8.82346 | -79.53239 | 4473 ft | 184 kts | 345° |
| 2026-04-26 00:10 | 8.83555 | -79.53095 | 4330 ft | 177 kts | 27° |
| 2026-04-26 00:10 | 8.84563 | -79.52396 | 4325 ft | 175 kts | 49° |
| 2026-04-26 00:11 | 8.85233 | -79.51395 | 4281 ft | 170 kts | 49° |
| 2026-04-26 00:11 | 8.86133 | -79.50647 | 4144 ft | 164 kts | 33° |
| 2026-04-26 00:11 | 8.87046 | -79.49989 | 4002 ft | 159 kts | 38° |
| 2026-04-26 00:11 | 8.87850 | -79.49253 | 3831 ft | 157 kts | 41° |
| 2026-04-26 00:12 | 8.88696 | -79.48561 | 3745 ft | 157 kts | 34° |
| 2026-04-26 00:12 | 8.89602 | -79.47950 | 3603 ft | 157 kts | 32° |
| 2026-04-26 00:12 | 8.90528 | -79.47366 | 3310 ft | 157 kts | 29° |
| 2026-04-26 00:12 | 8.91481 | -79.46832 | 2968 ft | 152 kts | 30° |
| 2026-04-26 00:13 | 8.92404 | -79.46280 | 2765 ft | 154 kts | 30° |
| 2026-04-26 00:13 | 8.93338 | -79.45737 | 2556 ft | 155 kts | 29° |
| 2026-04-26 00:13 | 8.94277 | -79.45201 | 2336 ft | 154 kts | 29° |
| 2026-04-26 00:13 | 8.95211 | -79.44673 | 2119 ft | 153 kts | 29° |
| 2026-04-26 00:14 | 8.96141 | -79.44148 | 1907 ft | 153 kts | 29° |
| 2026-04-26 00:14 | 8.97066 | -79.43649 | 1686 ft | 153 kts | 27° |
| 2026-04-26 00:14 | 8.97996 | -79.43127 | 1443 ft | 153 kts | 30° |
| 2026-04-26 00:14 | 8.98910 | -79.42587 | 1296 ft | 154 kts | 30° |
| 2026-04-26 00:15 | 8.99842 | -79.42064 | 1056 ft | 153 kts | 30° |
| 2026-04-26 00:15 | 9.00757 | -79.41521 | 866 ft | 153 kts | 30° |
| 2026-04-26 00:15 | 9.01693 | -79.41010 | 661 ft | 152 kts | 30° |
| 2026-04-26 00:15 | 9.02606 | -79.40480 | 572 ft | 151 kts | 28° |
| 2026-04-26 00:16 | 9.03538 | -79.39966 | 382 ft | 152 kts | 29° |
| 2026-04-26 00:16 | 9.04447 | -79.39446 | 162 ft | 152 kts | 30° |
| 2026-04-26 00:16 | 9.05370 | -79.38906 | 315 ft | 153 kts | 31° |
| 2026-04-26 00:16 | 9.06205 | -79.38393 | 1262 ft | 124 kts | 32° |
| 2026-04-26 00:17 | 9.06977 | -79.37889 | 1610 ft | 144 kts | 35° |
| 2026-04-26 00:17 | 9.07522 | -79.37047 | 1374 ft | 157 kts | 91° |
| 2026-04-26 00:17 | 9.07019 | -79.36228 | 2106 ft | 140 kts | 153° |
| 2026-04-26 00:17 | 9.06051 | -79.35857 | 2393 ft | 157 kts | 153° |
| 2026-04-26 00:18 | 9.05154 | -79.35172 | 2507 ft | 168 kts | 143° |
| 2026-04-26 00:18 | 9.04154 | -79.34473 | 2626 ft | 182 kts | 150° |
| 2026-04-26 00:18 | 9.02908 | -79.34093 | 2693 ft | 196 kts | 178° |
| 2026-04-26 00:18 | 9.01542 | -79.34328 | 2828 ft | 203 kts | 195° |
| 2026-04-26 00:19 | 9.00169 | -79.34710 | 2921 ft | 212 kts | 195° |
| 2026-04-26 00:19 | 8.98725 | -79.35099 | 3004 ft | 217 kts | 194° |
| 2026-04-26 00:19 | 8.97336 | -79.35466 | 3063 ft | 193 kts | 194° |
| 2026-04-26 00:19 | 8.96103 | -79.35787 | 3073 ft | 177 kts | 194° |
| 2026-04-26 00:20 | 8.94915 | -79.36094 | 3085 ft | 176 kts | 194° |
| 2026-04-26 00:20 | 8.93732 | -79.36394 | 3094 ft | 175 kts | 192° |
| 2026-04-26 00:20 | 8.92530 | -79.36345 | 3072 ft | 174 kts | 164° |
| 2026-04-26 00:20 | 8.91362 | -79.35980 | 3130 ft | 177 kts | 162° |
| 2026-04-26 00:21 | 8.90191 | -79.35591 | 3135 ft | 177 kts | 161° |
| 2026-04-26 00:21 | 8.89042 | -79.35192 | 3118 ft | 177 kts | 160° |
| 2026-04-26 00:21 | 8.87884 | -79.34776 | 3101 ft | 177 kts | 160° |
| 2026-04-26 00:21 | 8.86730 | -79.34356 | 3095 ft | 176 kts | 160° |
| 2026-04-26 00:22 | 8.85577 | -79.33931 | 3097 ft | 177 kts | 160° |
| 2026-04-26 00:22 | 8.84423 | -79.33501 | 3094 ft | 177 kts | 159° |
| 2026-04-26 00:22 | 8.83270 | -79.33069 | 3099 ft | 177 kts | 159° |
| 2026-04-26 00:22 | 8.82117 | -79.32636 | 3090 ft | 177 kts | 159° |
| 2026-04-26 00:23 | 8.80969 | -79.32203 | 3085 ft | 176 kts | 159° |
| 2026-04-26 00:23 | 8.79818 | -79.31768 | 3089 ft | 177 kts | 159° |
| 2026-04-26 00:23 | 8.78682 | -79.31337 | 3097 ft | 177 kts | 159° |
| 2026-04-26 00:23 | 8.77510 | -79.30989 | 3062 ft | 176 kts | 178° |
| 2026-04-26 00:24 | 8.76322 | -79.31217 | 3078 ft | 175 kts | 204° |
| 2026-04-26 00:24 | 8.75351 | -79.31950 | 3107 ft | 176 kts | 230° |
| 2026-04-26 00:24 | 8.74786 | -79.33038 | 3098 ft | 176 kts | 256° |
| 2026-04-26 00:24 | 8.74743 | -79.34264 | 3078 ft | 176 kts | 282° |
| 2026-04-26 00:25 | 8.75239 | -79.35380 | 3073 ft | 176 kts | 309° |
| 2026-04-26 00:25 | 8.76026 | -79.36325 | 3095 ft | 176 kts | 302° |
| 2026-04-26 00:25 | 8.76600 | -79.37401 | 3102 ft | 177 kts | 297° |
| 2026-04-26 00:25 | 8.77177 | -79.38499 | 3097 ft | 177 kts | 298° |
| 2026-04-26 00:26 | 8.77766 | -79.39589 | 3093 ft | 177 kts | 299° |
| 2026-04-26 00:26 | 8.78364 | -79.40673 | 3080 ft | 177 kts | 299° |
| 2026-04-26 00:26 | 8.78965 | -79.41753 | 3080 ft | 176 kts | 299° |
| 2026-04-26 00:26 | 8.79568 | -79.42828 | 3080 ft | 176 kts | 300° |
| 2026-04-26 00:27 | 8.80176 | -79.43905 | 3078 ft | 176 kts | 300° |
| 2026-04-26 00:27 | 8.80786 | -79.44982 | 3078 ft | 176 kts | 300° |
| 2026-04-26 00:27 | 8.81397 | -79.46056 | 3077 ft | 176 kts | 300° |
| 2026-04-26 00:27 | 8.82009 | -79.47131 | 3077 ft | 176 kts | 300° |
| 2026-04-26 00:28 | 8.82622 | -79.48206 | 3074 ft | 176 kts | 300° |
| 2026-04-26 00:28 | 8.83227 | -79.49266 | 3076 ft | 177 kts | 300° |
| 2026-04-26 00:28 | 8.83840 | -79.50341 | 3075 ft | 177 kts | 300° |
| 2026-04-26 00:28 | 8.84454 | -79.51416 | 3072 ft | 177 kts | 300° |
| 2026-04-26 00:29 | 8.85210 | -79.52379 | 3045 ft | 175 kts | 324° |
| 2026-04-26 00:29 | 8.86328 | -79.52826 | 3049 ft | 175 kts | 354° |
| 2026-04-26 00:29 | 8.87520 | -79.52651 | 3068 ft | 175 kts | 24° |
| 2026-04-26 00:29 | 8.88482 | -79.51915 | 3076 ft | 174 kts | 52° |
| 2026-04-26 00:30 | 8.88959 | -79.50841 | 3077 ft | 166 kts | 81° |
| 2026-04-26 00:30 | 8.88963 | -79.49726 | 3068 ft | 152 kts | 90° |
| 2026-04-26 00:30 | 8.89274 | -79.48737 | 3117 ft | 153 kts | 58° |
| 2026-04-26 00:30 | 8.89852 | -79.47815 | 3192 ft | 156 kts | 53° |
| 2026-04-26 00:31 | 8.90647 | -79.47162 | 3164 ft | 146 kts | 30° |
| 2026-04-26 00:31 | 8.91575 | -79.46675 | 2973 ft | 153 kts | 27° |
| 2026-04-26 00:31 | 8.92528 | -79.46177 | 2738 ft | 155 kts | 28° |
| 2026-04-26 00:31 | 8.93475 | -79.45657 | 2513 ft | 155 kts | 29° |
| 2026-04-26 00:32 | 8.94415 | -79.45128 | 2299 ft | 154 kts | 30° |
| 2026-04-26 00:32 | 8.95344 | -79.44603 | 2075 ft | 152 kts | 30° |
| 2026-04-26 00:32 | 8.97181 | -79.43562 | 1680 ft | 152 kts | 30° |
| 2026-04-26 00:33 | 8.98105 | -79.43038 | 1498 ft | 153 kts | 30° |
| 2026-04-26 00:33 | 8.99038 | -79.42528 | 1317 ft | 153 kts | 29° |
| 2026-04-26 00:33 | 8.99960 | -79.41995 | 1097 ft | 152 kts | 31° |
| 2026-04-26 00:33 | 9.00878 | -79.41464 | 919 ft | 152 kts | 27° |
| 2026-04-26 00:34 | 9.01813 | -79.40962 | 771 ft | 152 kts | 31° |
| 2026-04-26 00:34 | 9.02729 | -79.40422 | 561 ft | 152 kts | 30° |
| 2026-04-26 00:34 | 9.03653 | -79.39903 | 326 ft | 152 kts | 29° |
| 2026-04-26 00:34 | 9.04565 | -79.39373 | 127 ft | 151 kts | 29° |
| 2026-04-26 00:35 | 9.05451 | -79.38870 | 33 ft | 132 kts | 29° |
| 2026-04-26 00:35 | 9.06021 | -79.38545 | 34 ft | 66 kts | 30° |
| 2026-04-26 00:35 | 9.06272 | -79.38400 | 33 ft | 19 kts | 27° |
| 2026-04-26 00:35 | 9.06295 | -79.38391 | 33 ft | 0 kts | 18° |
| 2026-04-26 00:36 | 9.06351 | -79.38386 | 32 ft | 18 kts | 0° |
| 2026-04-26 00:36 | 9.06536 | -79.38380 | 32 ft | 35 kts | 2° |
| 2026-04-26 00:36 | 9.06672 | -79.38445 | 32 ft | 10 kts | 329° |
| 2026-04-26 00:36 | 9.06766 | -79.38405 | 32 ft | 25 kts | 28° |
| 2026-04-26 00:37 | 9.06836 | -79.38411 | 33 ft | 10 kts | 279° |
| 2026-04-26 00:37 | 9.06830 | -79.38451 | 33 ft | 0 kts | 258° |